Time;durP1;ratioP1;P1;durP2;ratioP2;P2;SDS_P1;SDS_P2;PMS_P1;PMS_P2;Temp;Humidity;BMP_temperature;BMP_pressure;BME280_temperature;BME280_humidity;BME280_pressure;Samples;Min_cycle;Max_cycle;Signal;HPM_P1;HPM_P2
2022/11/27 00:00:43;;;;;;;58.70;13.43;;;3.30;20.50;;;;;;5072516;28;20426;-66
2022/11/27 00:03:09;;;;;;;43.53;13.98;;;3.50;17.20;;;;;;5071438;28;20403;-66
2022/11/27 00:05:35;;;;;;;35.58;11.88;;;3.60;18.00;;;;;;5072629;28;20867;-66
2022/11/27 00:08:00;;;;;;;45.53;12.70;;;3.60;1.00;;;;;;5072550;28;20406;-66
2022/11/27 00:10:26;;;;;;;36.05;11.75;;;3.70;1.00;;;;;;5070824;28;20524;-66
2022/11/27 00:12:52;;;;;;;45.87;12.07;;;4.90;1.00;;;;;;5071994;28;20795;-66
2022/11/27 00:15:18;;;;;;;27.40;11.80;;;5.40;1.00;;;;;;5072158;28;20415;-66
2022/11/27 00:17:43;;;;;;;48.13;12.47;;;3.60;1.00;;;;;;5072432;28;20411;-66
2022/11/27 00:20:09;;;;;;;37.60;11.90;;;3.70;1.00;;;;;;5071451;28;20399;-65
2022/11/27 00:22:35;;;;;;;37.10;12.47;;;3.70;1.00;;;;;;5071600;28;20860;-65
2022/11/27 00:25:00;;;;;;;44.23;11.93;;;3.60;1.00;;;;;;5072254;28;20866;-65
2022/11/27 00:27:26;;;;;;;37.13;12.63;;;3.60;1.00;;;;;;5071454;28;20837;-65
2022/11/27 00:29:51;;;;;;;28.43;11.67;;;3.60;1.00;;;;;;5072104;28;20375;-65
2022/11/27 00:32:17;;;;;;;44.95;11.57;;;3.60;1.00;;;;;;5053608;28;20396;-65
2022/11/27 00:34:43;;;;;;;38.17;12.47;;;3.60;1.00;;;;;;5071988;28;20435;-64
2022/11/27 00:37:08;;;;;;;50.95;13.30;;;3.60;1.00;;;;;;5071337;28;20387;-64
2022/11/27 00:39:34;;;;;;;34.83;12.02;;;3.60;1.00;;;;;;5071770;28;20386;-64
2022/11/27 00:42:00;;;;;;;30.17;11.10;;;4.30;1.00;;;;;;5071432;28;20423;-65
2022/11/27 00:44:25;;;;;;;49.78;17.65;;;3.60;1.00;;;;;;5070646;28;20437;-65
2022/11/27 00:46:51;;;;;;;44.58;13.27;;;3.60;1.00;;;;;;5071342;28;20811;-64
2022/11/27 00:49:17;;;;;;;52.50;11.37;;;3.60;1.00;;;;;;5070914;28;20392;-65
2022/11/27 00:51:42;;;;;;;50.47;12.40;;;3.70;1.00;;;;;;5072150;28;20388;-65
2022/11/27 00:54:08;;;;;;;52.23;11.80;;;3.60;1.00;;;;;;5070963;28;20457;-65
2022/11/27 00:56:36;;;;;;;39.20;11.93;;;3.60;1.00;;;;;;5070470;28;20396;-65
2022/11/27 00:59:04;;;;;;;35.35;11.70;;;3.70;1.00;;;;;;5071313;28;20391;-65
2022/11/27 01:01:33;;;;;;;39.28;11.85;;;3.70;1.00;;;;;;5070527;28;20471;-64
2022/11/27 01:04:00;;;;;;;52.38;12.77;;;5.40;1.00;;;;;;5071333;28;20419;-65
2022/11/27 01:06:29;;;;;;;36.83;12.55;;;3.60;1.00;;;;;;5069079;28;20400;-65
2022/11/27 01:08:55;;;;;;;35.95;11.10;;;4.60;1.00;;;;;;5071456;28;20391;-65
2022/11/27 01:11:26;;;;;;;24.70;12.20;;;3.60;1.00;;;;;;5071290;28;20387;-65
2022/11/27 01:13:52;;;;;;;35.28;12.55;;;3.50;1.00;;;;;;5070558;28;20487;-65
2022/11/27 01:16:20;;;;;;;25.35;11.20;;;3.50;1.00;;;;;;5070646;28;20392;-65
2022/11/27 01:18:48;;;;;;;26.93;11.83;;;3.50;1.00;;;;;;5070931;28;20462;-65
2022/11/27 01:21:16;;;;;;;26.40;11.30;;;3.70;1.00;;;;;;5069984;28;20380;-65
2022/11/27 01:23:42;;;;;;;24.55;11.07;;;3.40;1.00;;;;;;5070912;28;20396;-64
2022/11/27 01:26:09;;;;;;;25.92;10.95;;;3.30;1.00;;;;;;5070369;28;20469;-65
2022/11/27 01:28:35;;;;;;;20.85;10.75;;;3.20;1.00;;;;;;5070376;28;20458;-65
2022/11/27 01:31:11;;;;;;;24.02;11.68;;;3.20;1.00;;;;;;5070593;28;20388;-64
2022/11/27 01:33:37;;;;;;;23.63;10.60;;;3.10;1.00;;;;;;5070421;28;20507;-65
2022/11/27 01:36:05;;;;;;;22.05;10.20;;;3.00;1.00;;;;;;5070800;28;20479;-65
2022/11/27 01:38:32;;;;;;;19.63;10.50;;;2.90;1.00;;;;;;5070015;28;20376;-65
2022/11/27 01:41:04;;;;;;;19.47;10.57;;;3.00;1.00;;;;;;5071008;28;20441;-64
2022/11/27 01:43:50;;;;;;;26.08;10.95;;;2.90;1.00;;;;;;5069963;28;20837;-65
2022/11/27 01:46:24;;;;;;;21.10;10.32;;;2.90;1.00;;;;;;5069477;28;20394;-65
2022/11/27 01:48:51;;;;;;;22.25;9.90;;;2.80;1.00;;;;;;5070732;28;20378;-65
2022/11/27 01:51:18;;;;;;;18.50;10.63;;;2.80;1.00;;;;;;5070265;28;20400;-65
2022/11/27 01:53:45;;;;;;;19.45;9.52;;;2.90;1.00;;;;;;5069935;28;20412;-65
2022/11/27 01:56:11;;;;;;;14.95;8.95;;;2.90;1.00;;;;;;5070301;28;20419;-65
2022/11/27 01:58:38;;;;;;;21.80;10.43;;;2.80;1.00;;;;;;5069792;28;20400;-65
2022/11/27 02:01:04;;;;;;;20.87;10.53;;;2.80;1.00;;;;;;5070908;28;20388;-64
2022/11/27 02:03:31;;;;;;;20.00;10.25;;;2.70;1.00;;;;;;5069223;28;20454;-64
2022/11/27 02:05:56;;;;;;;19.60;9.23;;;2.70;1.00;;;;;;5070768;28;20427;-64
2022/11/27 02:08:22;;;;;;;20.10;10.43;;;2.70;1.00;;;;;;5069330;28;20375;-65
2022/11/27 02:11:05;;;;;;;21.48;9.45;;;2.70;1.00;;;;;;5069997;28;20384;-65
2022/11/27 02:13:54;;;;;;;23.40;10.98;;;2.70;1.00;;;;;;5069176;28;20469;-64
2022/11/27 02:16:34;;;;;;;16.92;9.15;;;3.90;1.00;;;;;;5069047;28;20388;-64
2022/11/27 02:19:11;;;;;;;21.42;10.23;;;2.60;1.00;;;;;;5070083;28;20482;-64
2022/11/27 02:21:41;;;;;;;19.15;9.05;;;2.60;1.00;;;;;;5069613;28;20395;-64
2022/11/27 02:24:41;;;;;;;17.70;9.40;;;2.50;1.00;;;;;;5070222;28;20407;-64
2022/11/27 02:27:25;;;;;;;18.70;10.17;;;2.50;1.00;;;;;;5028383;28;20445;-64
2022/11/27 02:29:55;;;;;;;20.08;9.45;;;2.40;1.00;;;;;;5068606;28;20395;-65
2022/11/27 02:32:33;;;;;;;16.80;8.50;;;2.50;1.00;;;;;;5069197;28;20406;-65
2022/11/27 02:35:05;;;;;;;20.33;9.50;;;2.50;1.00;;;;;;5069686;28;20526;-65
2022/11/27 02:37:56;;;;;;;18.38;10.75;;;2.50;1.00;;;;;;5068803;28;20391;-65
2022/11/27 02:40:35;;;;;;;22.50;9.77;;;2.50;1.00;;;;;;5069083;28;20433;-64
2022/11/27 02:43:29;;;;;;;21.60;9.95;;;2.50;1.00;;;;;;5069548;28;20457;-64
2022/11/27 02:45:56;;;;;;;18.33;9.27;;;2.60;1.00;;;;;;5061988;28;20395;-64
2022/11/27 02:48:28;;;;;;;16.70;8.70;;;2.50;1.00;;;;;;5068978;28;20384;-64
2022/11/27 02:50:54;;;;;;;20.05;8.10;;;2.50;1.00;;;;;;5070139;28;20375;-64
2022/11/27 02:53:24;;;;;;;17.20;8.45;;;2.40;1.00;;;;;;5069084;28;20415;-65
2022/11/27 02:55:52;;;;;;;17.52;8.95;;;2.40;1.00;;;;;;5069787;28;20764;-64
2022/11/27 02:58:22;;;;;;;20.07;8.43;;;2.40;1.00;;;;;;5068766;28;20391;-64
2022/11/27 03:00:49;;;;;;;18.98;8.77;;;2.40;1.00;;;;;;5069824;28;20388;-64
2022/11/27 03:03:19;;;;;;;22.70;9.65;;;2.30;1.00;;;;;;5068604;28;20809;-65
2022/11/27 03:05:48;;;;;;;18.50;8.63;;;3.60;1.00;;;;;;5069351;28;20395;-64
2022/11/27 03:08:28;;;;;;;18.02;9.05;;;2.30;1.00;;;;;;5068395;28;20402;-64
2022/11/27 03:11:03;;;;;;;18.30;8.27;;;2.30;1.00;;;;;;5069189;28;20776;-64
2022/11/27 03:13:35;;;;;;;22.73;9.10;;;2.30;1.00;;;;;;5068536;28;20666;-64
2022/11/27 03:16:27;;;;;;;17.42;8.40;;;2.30;1.00;;;;;;5069321;28;20376;-64
2022/11/27 03:19:15;;;;;;;17.30;8.02;;;2.30;1.00;;;;;;5049495;28;20385;-65
2022/11/27 03:22:02;;;;;;;16.63;7.82;;;2.20;1.00;;;;;;5056894;28;20411;-65
2022/11/27 03:24:30;;;;;;;15.32;7.68;;;3.10;1.00;;;;;;5072372;28;20392;-65
2022/11/27 03:26:57;;;;;;;14.85;8.32;;;2.30;1.00;;;;;;5073218;28;20418;-65
2022/11/27 03:29:29;;;;;;;15.32;7.70;;;2.30;1.00;;;;;;5072718;28;20890;-65
2022/11/27 03:31:56;;;;;;;18.98;8.55;;;2.40;1.00;;;;;;5073012;28;20392;-65
2022/11/27 03:34:22;;;;;;;17.10;8.18;;;2.40;1.00;;;;;;5072080;28;20423;-65
2022/11/27 03:36:48;;;;;;;17.70;8.45;;;2.40;1.00;;;;;;5073206;28;20860;-65
2022/11/27 03:39:14;;;;;;;18.08;7.90;;;2.30;1.00;;;;;;5072336;28;20378;-66
2022/11/27 03:41:52;;;;;;;19.42;8.30;;;2.20;1.00;;;;;;5073164;28;20383;-65
2022/11/27 03:44:37;;;;;;;17.90;8.30;;;2.10;1.00;;;;;;5072056;28;20872;-65
2022/11/27 03:47:29;;;;;;;20.60;8.82;;;3.80;1.00;;;;;;5072791;28;20733;-65
2022/11/27 03:50:26;;;;;;;16.70;7.95;;;3.30;1.00;;;;;;5072522;28;20928;-65
2022/11/27 03:53:00;;;;;;;16.50;8.17;;;2.10;1.00;;;;;;5072437;28;20889;-65
2022/11/27 03:55:35;;;;;;;14.18;7.78;;;2.00;1.00;;;;;;5072294;28;20411;-65
2022/11/27 03:58:08;;;;;;;23.57;8.97;;;2.00;1.00;;;;;;5072430;28;20384;-65
2022/11/27 04:00:40;;;;;;;18.00;8.60;;;2.00;1.00;;;;;;5072069;28;20415;-65
2022/11/27 04:03:10;;;;;;;17.23;8.30;;;2.00;1.00;;;;;;5072570;28;20410;-65
2022/11/27 04:05:36;;;;;;;15.93;7.90;;;3.40;1.00;;;;;;5071412;28;20403;-65
2022/11/27 04:08:01;;;;;;;16.52;8.18;;;1.90;1.00;;;;;;5072399;28;20380;-64
2022/11/27 04:10:27;;;;;;;18.90;8.57;;;1.90;1.00;;;;;;5071300;28;20388;-65
2022/11/27 04:12:52;;;;;;;16.67;7.32;;;2.00;1.00;;;;;;5071947;28;20387;-66
2022/11/27 04:15:18;;;;;;;16.60;8.03;;;2.00;1.00;;;;;;5069473;28;20407;-65
2022/11/27 04:17:44;;;;;;;15.03;8.50;;;2.00;1.00;;;;;;5072003;28;20907;-66
2022/11/27 04:20:14;;;;;;;20.05;9.70;;;2.10;1.00;;;;;;5071879;28;20969;-65
2022/11/27 04:22:40;;;;;;;17.63;9.68;;;2.20;1.00;;;;;;5071566;28;20395;-65
2022/11/27 04:25:06;;;;;;;21.40;9.73;;;2.20;1.00;;;;;;5071860;28;20399;-66
2022/11/27 04:27:32;;;;;;;19.30;8.52;;;2.20;1.00;;;;;;5070872;28;20387;-65
2022/11/27 04:29:57;;;;;;;19.13;9.00;;;2.20;1.00;;;;;;5071606;28;20895;-66
2022/11/27 04:32:23;;;;;;;19.03;9.30;;;2.20;1.00;;;;;;5070774;28;20380;-66
2022/11/27 04:34:49;;;;;;;17.60;9.20;;;2.20;1.00;;;;;;5071030;28;20423;-65
2022/11/27 04:37:14;;;;;;;18.38;9.40;;;2.10;1.00;;;;;;5071061;28;20411;-65
2022/11/27 04:39:40;;;;;;;20.00;9.40;;;2.00;1.00;;;;;;5071492;28;20487;-65
2022/11/27 04:42:06;;;;;;;18.90;9.00;;;1.90;1.00;;;;;;5071089;28;20392;-66
2022/11/27 04:44:31;;;;;;;17.05;8.57;;;1.80;1.00;;;;;;5071192;28;20867;-66
2022/11/27 04:46:57;;;;;;;22.20;9.63;;;1.80;1.00;;;;;;5071452;28;20479;-65
2022/11/27 04:49:22;;;;;;;17.20;8.30;;;1.70;1.00;;;;;;5070725;28;20764;-65
2022/11/27 04:51:48;;;;;;;19.08;8.95;;;1.70;1.00;;;;;;5071242;28;20395;-65
2022/11/27 04:54:14;;;;;;;15.80;9.20;;;1.70;1.00;;;;;;5070414;28;20862;-66
2022/11/27 04:56:39;;;;;;;19.75;8.20;;;1.60;1.00;;;;;;5071734;28;20380;-65
2022/11/27 04:59:05;;;;;;;17.80;8.27;;;1.50;1.00;;;;;;5071228;28;20438;-65
2022/11/27 05:01:31;;;;;;;16.27;8.57;;;1.40;1.00;;;;;;5070158;28;20419;-65
2022/11/27 05:03:56;;;;;;;20.25;8.40;;;1.50;1.00;;;;;;5071483;28;20410;-64
2022/11/27 05:06:22;;;;;;;20.67;8.80;;;1.50;1.00;;;;;;5070250;28;20388;-67
2022/11/27 05:08:48;;;;;;;17.10;8.90;;;1.40;1.00;;;;;;5070819;28;20786;-67
2022/11/27 05:11:15;;;;;;;18.20;7.97;;;1.50;1.00;;;;;;5070288;28;20803;-68
2022/11/27 05:13:41;;;;;;;21.10;10.40;;;1.50;1.00;;;;;;5071197;28;20416;-68
2022/11/27 05:16:07;;;;;;;20.75;9.18;;;1.50;1.00;;;;;;5070315;28;20406;-68
2022/11/27 05:18:33;;;;;;;17.23;8.88;;;1.50;1.00;;;;;;5069344;28;20459;-68
2022/11/27 05:21:02;;;;;;;19.27;9.00;;;1.50;1.00;;;;;;5070681;28;20380;-66
2022/11/27 05:23:29;;;;;;;20.67;8.90;;;1.40;1.00;;;;;;5069638;28;20399;-66
2022/11/27 05:25:55;;;;;;;17.25;8.85;;;1.40;1.00;;;;;;5070261;28;20392;-68
2022/11/27 05:28:21;;;;;;;22.55;9.95;;;1.50;1.00;;;;;;5069779;28;20480;-68
2022/11/27 05:30:48;;;;;;;19.95;8.50;;;1.80;1.00;;;;;;5070551;28;20478;-67
2022/11/27 05:33:14;;;;;;;20.20;8.93;;;1.40;1.00;;;;;;5070178;28;20458;-68
2022/11/27 05:35:40;;;;;;;18.05;8.68;;;1.40;1.00;;;;;;5070165;28;20395;-69
2022/11/27 05:38:05;;;;;;;18.00;7.93;;;1.50;1.00;;;;;;5070245;28;20400;-69
2022/11/27 05:40:31;;;;;;;18.30;8.00;;;1.50;1.00;;;;;;5068981;28;20396;-69
2022/11/27 05:42:57;;;;;;;18.52;8.57;;;1.50;1.00;;;;;;5069892;28;20388;-67
2022/11/27 05:45:22;;;;;;;17.87;8.63;;;1.50;1.00;;;;;;5068825;28;20783;-68
2022/11/27 05:47:48;;;;;;;22.17;8.50;;;1.60;1.00;;;;;;5070333;28;20423;-68
2022/11/27 05:50:13;;;;;;;16.40;8.80;;;1.70;1.00;;;;;;5069867;28;20372;-66
2022/11/27 05:52:39;;;;;;;21.47;9.50;;;1.80;1.00;;;;;;5069319;28;20379;-67
2022/11/27 05:55:05;;;;;;;19.02;8.60;;;1.80;1.00;;;;;;5069650;28;20407;-69
2022/11/27 05:57:31;;;;;;;26.00;10.45;;;1.90;1.00;;;;;;5068734;28;20391;-66
2022/11/27 05:59:57;;;;;;;21.63;8.83;;;2.00;1.00;;;;;;5069867;28;20391;-67
2022/11/27 06:02:24;;;;;;;16.05;7.72;;;1.90;1.00;;;;;;5069396;28;20392;-67
2022/11/27 06:04:49;;;;;;;17.73;7.63;;;1.80;1.00;;;;;;5069545;28;20445;-63
2022/11/27 06:07:15;;;;;;;18.90;8.27;;;1.70;1.00;;;;;;5069382;28;20422;-64
2022/11/27 06:09:40;;;;;;;20.90;8.52;;;1.60;1.00;;;;;;5055819;28;20392;-63
2022/11/27 06:12:06;;;;;;;16.20;7.57;;;1.50;1.00;;;;;;5069185;28;20392;-62
2022/11/27 06:14:33;;;;;;;15.70;7.35;;;1.50;1.00;;;;;;5069307;28;20411;-62
2022/11/27 06:17:00;;;;;;;15.50;8.25;;;1.50;1.00;;;;;;5069374;28;20407;-62
2022/11/27 06:19:25;;;;;;;16.00;8.30;;;1.60;1.00;;;;;;5068975;28;20423;-62
2022/11/27 06:21:51;;;;;;;21.07;8.17;;;1.70;1.00;;;;;;5069493;28;20411;-67
2022/11/27 06:24:17;;;;;;;19.23;8.35;;;1.60;1.00;;;;;;5068330;28;20399;-67
2022/11/27 06:26:42;;;;;;;18.33;7.63;;;1.70;1.00;;;;;;5068890;28;20419;-67
2022/11/27 06:29:08;;;;;;;18.80;8.00;;;1.70;1.00;;;;;;5069147;28;20405;-67
2022/11/27 06:31:34;;;;;;;18.98;8.15;;;1.60;1.00;;;;;;5068159;28;20388;-67
2022/11/27 06:34:01;;;;;;;16.00;8.03;;;1.60;1.00;;;;;;5069311;28;20516;-67
2022/11/27 06:36:30;;;;;;;14.65;7.28;;;1.60;1.00;;;;;;5068618;28;20445;-66
2022/11/27 06:38:55;;;;;;;17.58;7.93;;;1.50;1.00;;;;;;5069514;28;20410;-66
2022/11/27 06:41:23;;;;;;;18.07;7.50;;;1.60;1.00;;;;;;5069058;28;20480;-66
2022/11/27 06:43:49;;;;;;;15.18;7.85;;;2.50;1.00;;;;;;5069015;28;20451;-66
2022/11/27 06:46:17;;;;;;;18.02;8.43;;;2.00;1.00;;;;;;5069537;28;20380;-66
2022/11/27 06:48:44;;;;;;;16.85;8.02;;;1.70;1.00;;;;;;5068715;28;20392;-66
2022/11/27 06:51:16;;;;;;;19.02;8.77;;;1.70;1.00;;;;;;5069185;28;20396;-67
2022/11/27 06:53:43;;;;;;;19.77;9.13;;;1.60;1.00;;;;;;5068857;28;20419;-67
2022/11/27 06:56:11;;;;;;;18.98;8.90;;;1.60;1.00;;;;;;5071614;28;20395;-66
2022/11/27 06:58:37;;;;;;;18.40;8.45;;;1.60;1.00;;;;;;5072349;28;20854;-67
2022/11/27 07:01:05;;;;;;;16.63;7.97;;;1.60;1.00;;;;;;5073380;28;20386;-67
2022/11/27 07:03:31;;;;;;;18.87;9.40;;;1.60;1.00;;;;;;5069274;28;20957;-68
2022/11/27 07:06:05;;;;;;;20.43;9.67;;;1.60;1.00;;;;;;5067522;28;20547;-67
2022/11/27 07:08:32;;;;;;;18.45;9.90;;;1.70;1.00;;;;;;5072230;28;20399;-67
2022/11/27 07:11:10;;;;;;;21.83;11.35;;;1.80;1.00;;;;;;5073008;28;20483;-67
2022/11/27 07:13:36;;;;;;;19.55;9.77;;;3.30;1.00;;;;;;5071901;28;20500;-67
2022/11/27 07:16:07;;;;;;;22.00;12.50;;;1.90;1.00;;;;;;5072494;28;20433;-67
2022/11/27 07:18:41;;;;;;;19.15;10.35;;;2.00;1.00;;;;;;5072812;28;20467;-67
2022/11/27 07:21:07;;;;;;;24.03;11.30;;;2.10;1.00;;;;;;5072551;28;20405;-68
2022/11/27 07:23:34;;;;;;;23.30;10.70;;;2.10;1.00;;;;;;5071998;28;20402;-68
2022/11/27 07:26:07;;;;;;;21.98;11.50;;;2.10;1.00;;;;;;5072494;28;20417;-67
2022/11/27 07:28:33;;;;;;;21.98;10.68;;;2.10;1.00;;;;;;5065381;28;20403;-67
2022/11/27 07:30:59;;;;;;;25.20;10.30;;;2.10;1.00;;;;;;5072509;28;20865;-67
2022/11/27 07:33:25;;;;;;;19.00;10.57;;;3.90;1.00;;;;;;5071298;28;20415;-67
2022/11/27 07:36:03;;;;;;;20.67;11.23;;;2.10;1.00;;;;;;5072219;28;20387;-67
2022/11/27 07:38:28;;;;;;;22.80;10.55;;;2.20;1.00;;;;;;5071939;28;20430;-67
2022/11/27 07:40:54;;;;;;;22.87;10.20;;;2.20;1.00;;;;;;5071977;28;20384;-67
2022/11/27 07:43:20;;;;;;;20.70;9.00;;;2.20;1.00;;;;;;5071060;28;20873;-65
2022/11/27 07:45:45;;;;;;;19.23;9.95;;;3.80;1.00;;;;;;5072110;28;20398;-66
2022/11/27 07:48:11;;;;;;;17.85;8.90;;;2.40;1.00;;;;;;5072176;28;20391;-66
2022/11/27 07:50:39;;;;;;;21.17;9.73;;;2.50;1.00;;;;;;5071168;28;20399;-66
2022/11/27 07:53:04;;;;;;;21.30;9.95;;;2.50;1.00;;;;;;5071752;28;20407;-66
2022/11/27 07:55:30;;;;;;;19.58;9.32;;;2.60;1.00;;;;;;5071519;28;20737;-66
2022/11/27 07:57:55;;;;;;;20.60;9.30;;;2.60;1.00;;;;;;5072673;28;20899;-65
2022/11/27 08:00:21;;;;;;;20.95;9.70;;;2.70;1.00;;;;;;5071276;28;20471;-66
2022/11/27 08:02:47;;;;;;;19.70;9.23;;;2.70;1.00;;;;;;5072004;28;20394;-65
2022/11/27 08:05:12;;;;;;;20.70;9.30;;;2.80;1.00;;;;;;5072168;28;20466;-66
2022/11/27 08:07:38;;;;;;;19.35;9.65;;;2.70;1.00;;;;;;5070292;28;20994;-66
2022/11/27 08:10:04;;;;;;;17.20;8.93;;;2.80;1.00;;;;;;5071526;28;20466;-66
2022/11/27 08:12:30;;;;;;;18.50;9.80;;;2.70;1.00;;;;;;5070970;28;20855;-66
2022/11/27 08:14:55;;;;;;;22.77;9.27;;;2.80;1.00;;;;;;5071267;28;20414;-66
2022/11/27 08:17:21;;;;;;;20.15;9.43;;;2.80;1.00;;;;;;5071148;28;20391;-65
2022/11/27 08:19:46;;;;;;;18.77;10.30;;;2.80;1.00;;;;;;5071176;28;20475;-66
2022/11/27 08:22:14;;;;;;;20.92;10.30;;;2.80;1.00;;;;;;5071887;28;20387;-65
2022/11/27 08:24:43;;;;;;;20.95;10.23;;;3.20;1.00;;;;;;5071460;28;20400;-65
2022/11/27 08:27:10;;;;;;;20.33;10.60;;;4.00;1.00;;;;;;5071427;28;20391;-66
2022/11/27 08:29:36;;;;;;;15.75;8.23;;;5.20;99.90;;;;;;5070994;28;20388;-66
2022/11/27 08:32:03;;;;;;;16.90;8.20;;;6.20;1.00;;;;;;5071404;28;20594;-67
2022/11/27 08:34:28;;;;;;;12.68;7.20;;;7.30;99.90;;;;;;5070245;28;20412;-63
2022/11/27 08:36:54;;;;;;;14.63;6.30;;;8.50;10.70;;;;;;5071263;28;20471;-67
2022/11/27 08:39:19;;;;;;;12.82;6.65;;;9.00;1.00;;;;;;5071080;28;20372;-68
2022/11/27 08:41:45;;;;;;;12.75;6.13;;;9.20;1.00;;;;;;5071840;28;20486;-67
2022/11/27 08:44:11;;;;;;;13.60;6.50;;;9.50;1.00;;;;;;5071225;28;20395;-67
2022/11/27 08:46:37;;;;;;;14.00;6.43;;;9.90;1.00;;;;;;5082408;28;20859;-67
2022/11/27 08:49:03;;;;;;;11.60;6.13;;;10.30;1.00;;;;;;5073429;28;20585;-67
2022/11/27 08:51:29;;;;;;;13.63;6.55;;;11.00;1.00;;;;;;5081789;28;20471;-69
2022/11/27 08:53:54;;;;;;;10.80;5.70;;;11.30;1.00;;;;;;5079495;28;20895;-67
2022/11/27 08:56:23;;;;;;;10.87;5.90;;;11.70;1.00;;;;;;5070110;28;20480;-67
2022/11/27 08:58:49;;;;;;;12.90;5.60;;;12.10;1.00;;;;;;5070521;28;20406;-67
2022/11/27 09:01:23;;;;;;;9.70;4.88;;;;;;;;;;5071004;28;20376;-68
2022/11/27 09:03:49;;;;;;;9.88;4.97;;;12.10;99.90;;;;;;5070198;28;20399;-63
2022/11/27 09:06:17;;;;;;;10.98;5.40;;;12.30;99.90;;;;;;5071174;28;20443;-66
2022/11/27 09:08:44;;;;;;;13.90;5.72;;;11.80;99.90;;;;;;5070456;28;20379;-66
2022/11/27 09:11:11;;;;;;;11.45;5.63;;;11.10;99.90;;;;;;5070435;28;22038;-65
2022/11/27 09:13:39;;;;;;;11.10;5.55;;;10.20;99.90;;;;;;5069766;28;21178;-62
2022/11/27 09:16:06;;;;;;;10.52;5.43;;;9.40;99.90;;;;;;5071723;28;20394;-62
2022/11/27 09:18:32;;;;;;;10.73;5.53;;;9.10;99.90;;;;;;5081623;28;20992;-66
2022/11/27 09:21:05;;;;;;;10.93;5.43;;;9.10;99.90;;;;;;5070446;28;20394;-64
2022/11/27 09:23:31;;;;;;;12.73;6.20;;;8.30;99.90;;;;;;5070297;28;20464;-66
2022/11/27 09:26:00;;;;;;;11.47;5.70;;;8.20;99.90;;;;;;5071165;28;20394;-65
2022/11/27 09:28:26;;;;;;;12.77;6.00;;;8.10;99.90;;;;;;5069471;28;20372;-67
2022/11/27 09:30:56;;;;;;;12.13;6.23;;;9.20;1.00;;;;;;5070608;28;20402;-65
2022/11/27 09:33:23;;;;;;;13.02;5.60;;;8.10;1.00;;;;;;5069197;28;20414;-65
2022/11/27 09:35:49;;;;;;;11.70;5.53;;;8.40;1.00;;;;;;5070284;28;20391;-64
2022/11/27 09:38:14;;;;;;;10.47;5.43;;;7.90;1.00;;;;;;5070607;28;20857;-64
2022/11/27 09:40:48;;;;;;;10.63;5.40;;;7.90;1.00;;;;;;5072408;28;20418;-64
2022/11/27 09:43:15;;;;;;;10.60;5.90;;;8.10;1.00;;;;;;5072077;28;20752;-64
2022/11/27 09:45:48;;;;;;;13.30;5.90;;;8.10;1.00;;;;;;5076811;28;20388;-62
2022/11/27 09:48:21;;;;;;;11.40;5.65;;;8.20;1.00;;;;;;5070793;28;20379;-63
2022/11/27 09:50:50;;;;;;;11.87;5.80;;;7.60;1.00;;;;;;5070633;28;20845;-64
2022/11/27 09:53:37;;;;;;;13.20;5.97;;;8.10;1.00;;;;;;5069978;28;20426;-64
2022/11/27 09:56:07;;;;;;;12.10;5.93;;;7.90;1.00;;;;;;5070682;28;20375;-63
2022/11/27 09:58:56;;;;;;;11.00;5.40;;;8.20;1.00;;;;;;5069768;28;20544;-64
2022/11/27 10:01:32;;;;;;;11.02;5.22;;;9.00;1.00;;;;;;5069661;28;20407;-66
2022/11/27 10:03:59;;;;;;;12.38;6.03;;;8.60;1.00;;;;;;5069643;28;20922;-64
2022/11/27 10:06:30;;;;;;;10.18;5.30;;;9.10;1.00;;;;;;5069706;28;20391;-62
2022/11/27 10:09:11;;;;;;;11.33;5.77;;;9.20;1.00;;;;;;5069306;28;20424;-61
2022/11/27 10:12:04;;;;;;;11.27;5.50;;;8.90;1.00;;;;;;5069142;28;20388;-63
2022/11/27 10:14:48;;;;;;;13.20;5.50;;;9.10;1.00;;;;;;5061832;28;20408;-63
2022/11/27 10:17:19;;;;;;;12.00;6.27;;;9.00;1.00;;;;;;5069863;28;20415;-62
2022/11/27 10:19:56;;;;;;;14.20;6.35;;;8.90;1.00;;;;;;5068807;28;20406;-61
2022/11/27 10:22:32;;;;;;;11.05;5.82;;;8.80;1.00;;;;;;5068810;28;20718;-63
2022/11/27 10:25:17;;;;;;;12.25;6.38;;;9.00;1.00;;;;;;5070282;28;20422;-62
2022/11/27 10:27:52;;;;;;;12.70;6.10;;;9.50;1.00;;;;;;5070408;28;20380;-62
2022/11/27 10:30:20;;;;;;;11.50;5.70;;;10.90;1.00;;;;;;5069487;28;20382;-65
2022/11/27 10:32:51;;;;;;;11.40;5.90;;;11.80;99.90;;;;;;5080527;28;20378;-64
2022/11/27 10:35:26;;;;;;;11.88;6.20;;;12.50;99.90;;;;;;5086081;28;20428;-66
2022/11/27 10:37:55;;;;;;;13.02;6.70;;;;;;;;;;5077245;28;20496;-64
2022/11/27 10:40:44;;;;;;;12.15;6.75;;;13.90;99.90;;;;;;5055796;28;20393;-64
2022/11/27 10:43:22;;;;;;;11.90;6.40;;;14.10;99.90;;;;;;5061664;28;20380;-64
2022/11/27 10:45:51;;;;;;;11.57;6.00;;;14.30;99.90;;;;;;5069087;28;20508;-62
2022/11/27 10:48:17;;;;;;;12.80;6.60;;;14.10;99.90;;;;;;5063051;28;21268;-64
2022/11/27 10:50:44;;;;;;;11.93;6.20;;;14.00;99.90;;;;;;5069124;28;20391;-63
2022/11/27 10:53:16;;;;;;;13.43;5.70;;;13.90;99.90;;;;;;5072207;28;20388;-63
2022/11/27 10:56:03;;;;;;;11.70;5.47;;;14.10;99.90;;;;;;5062285;28;20889;-64
2022/11/27 10:58:48;;;;;;;12.93;5.70;;;14.40;99.90;;;;;;5075704;28;20886;-64
2022/11/27 11:01:16;;;;;;;10.52;5.00;;;14.00;99.90;;;;;;5058389;28;20383;-64
2022/11/27 11:03:42;;;;;;;10.25;4.70;;;13.70;99.90;;;;;;5068091;28;21231;-64
2022/11/27 11:06:29;;;;;;;11.50;4.30;;;14.10;99.90;;;;;;5069390;28;20395;-62
2022/11/27 11:09:05;;;;;;;8.73;4.30;;;13.70;99.90;;;;;;5067672;28;20392;-62
2022/11/27 11:11:31;;;;;;;9.77;4.28;;;13.00;99.90;;;;;;5066694;28;20386;-63
2022/11/27 11:13:56;;;;;;;8.97;4.30;;;12.20;99.90;;;;;;5062299;28;20405;-62
2022/11/27 11:16:24;;;;;;;10.40;3.85;;;11.30;99.90;;;;;;5048805;28;20847;-62
2022/11/27 11:18:53;;;;;;;9.88;4.60;;;10.70;99.90;;;;;;5056181;28;20384;-61
2022/11/27 11:21:33;;;;;;;8.65;3.40;;;10.40;99.90;;;;;;5068934;28;20869;-64
2022/11/27 11:24:21;;;;;;;9.00;4.03;;;10.20;99.90;;;;;;5068831;28;20453;-59
2022/11/27 11:26:49;;;;;;;9.95;3.50;;;10.00;99.90;;;;;;5068628;28;20383;-58
2022/11/27 11:29:30;;;;;;;9.43;4.45;;;10.00;99.90;;;;;;5068943;28;20390;-60
2022/11/27 11:32:00;;;;;;;8.50;3.85;;;9.30;99.90;;;;;;5068791;28;20380;-60
2022/11/27 11:34:28;;;;;;;10.60;4.20;;;8.90;99.90;;;;;;5067892;28;20503;-58
2022/11/27 11:37:02;;;;;;;11.88;3.85;;;8.80;99.90;;;;;;5068703;28;20388;-57
2022/11/27 11:39:36;;;;;;;9.23;3.42;;;8.80;99.90;;;;;;5050503;28;20400;-58
2022/11/27 11:42:09;;;;;;;8.80;3.60;;;8.80;99.90;;;;;;5070643;28;20744;-58
2022/11/27 11:44:37;;;;;;;8.50;3.40;;;8.60;99.90;;;;;;5069942;28;20433;-60
2022/11/27 11:47:03;;;;;;;9.90;3.70;;;8.80;99.90;;;;;;5060186;28;20919;-59
2022/11/27 11:49:32;;;;;;;9.02;3.50;;;8.90;99.90;;;;;;5071394;28;20432;-60
2022/11/27 11:52:27;;;;;;;8.98;3.50;;;9.10;99.90;;;;;;5071839;28;20395;-61
2022/11/27 11:55:13;;;;;;;9.93;3.88;;;9.10;99.90;;;;;;5072146;28;20876;-60
2022/11/27 11:58:09;;;;;;;8.50;3.60;;;9.00;99.90;;;;;;5069472;28;20876;-60
2022/11/27 12:00:45;;;;;;;8.55;3.47;;;9.00;99.90;;;;;;5071585;28;20391;-60
2022/11/27 12:03:45;;;;;;;7.63;2.83;;;9.00;99.90;;;;;;5071595;28;20404;-58
2022/11/27 12:06:34;;;;;;;8.25;3.28;;;9.10;99.90;;;;;;5057470;28;20395;-58
2022/11/27 12:09:02;;;;;;;8.07;2.80;;;9.30;99.90;;;;;;5071572;28;20411;-61
2022/11/27 12:12:10;;;;;;;10.90;2.93;;;9.60;99.90;;;;;;5070750;28;20392;-59
2022/11/27 12:15:13;;;;;;;8.18;3.13;;;9.90;99.90;;;;;;5070818;28;20490;-62
2022/11/27 12:18:20;;;;;;;8.10;2.90;;;10.10;99.90;;;;;;5071260;28;20380;-62
2022/11/27 12:21:07;;;;;;;9.88;2.80;;;10.20;99.90;;;;;;5026383;28;20402;-62
2022/11/27 12:23:42;;;;;;;7.05;2.80;;;10.40;99.90;;;;;;5066492;28;20402;-62
2022/11/27 12:26:21;;;;;;;7.20;2.30;;;10.30;99.90;;;;;;5071897;28;20437;-62
2022/11/27 12:29:28;;;;;;;6.88;2.58;;;10.40;99.90;;;;;;5071237;28;20840;-61
2022/11/27 12:32:17;;;;;;;7.10;2.60;;;10.30;99.90;;;;;;5071642;28;20456;-62
2022/11/27 12:35:18;;;;;;;8.30;2.97;;;10.60;99.90;;;;;;5070454;28;20433;-62
2022/11/27 12:38:19;;;;;;;11.30;4.00;;;10.70;99.90;;;;;;5070653;28;20877;-62
2022/11/27 12:40:55;;;;;;;16.20;6.60;;;10.60;99.90;;;;;;5073112;28;20481;-62
2022/11/27 12:43:31;;;;;;;9.97;3.33;;;10.70;99.90;;;;;;5071243;28;20856;-62
2022/11/27 12:46:13;;;;;;;9.43;3.95;;;10.50;99.90;;;;;;5053716;28;20411;-63
2022/11/27 12:49:07;;;;;;;8.40;3.55;;;10.40;99.90;;;;;;5087875;28;20576;-62
2022/11/27 12:51:40;;;;;;;9.40;3.63;;;10.30;99.90;;;;;;5013798;28;20883;-63
2022/11/27 12:54:20;;;;;;;8.77;4.00;;;10.30;99.90;;;;;;5051386;28;20406;-63
2022/11/27 12:56:58;;;;;;;10.52;3.75;;;10.40;99.90;;;;;;5050918;28;20882;-65
2022/11/27 12:59:35;;;;;;;9.30;3.45;;;10.60;99.90;;;;;;5050708;28;20382;-65
2022/11/27 13:02:38;;;;;;;8.23;3.00;;;10.50;99.90;;;;;;5064906;28;20396;-63
2022/11/27 13:05:37;;;;;;;7.95;2.83;;;10.30;99.90;;;;;;5070507;28;20488;-63
2022/11/27 13:08:14;;;;;;;7.65;2.60;;;10.40;99.90;;;;;;5071020;28;20436;-63
2022/11/27 13:10:51;;;;;;;8.70;3.30;;;10.40;99.90;;;;;;5069147;28;20387;-63
2022/11/27 13:13:32;;;;;;;10.73;3.55;;;10.30;99.90;;;;;;5070249;28;20396;-63